Time;durP1;ratioP1;P1;durP2;ratioP2;P2;SDS_P1;SDS_P2;PMS_P1;PMS_P2;Temp;Humidity;BMP_temperature;BMP_pressure;BME280_temperature;BME280_humidity;BME280_pressure;Samples;Min_cycle;Max_cycle;Signal;HPM_P1;HPM_P2
2021/09/25 00:00:24;;;;;;;4.77;4.37;;;14.30;99.90;;;;;;5074032;28;20455;-61
2021/09/25 00:02:51;;;;;;;5.03;4.63;;;14.20;99.90;;;;;;5074132;28;20447;-59
2021/09/25 00:05:17;;;;;;;5.53;5.00;;;14.20;99.90;;;;;;5072079;28;20482;-60
2021/09/25 00:07:44;;;;;;;7.93;5.23;;;14.20;99.90;;;;;;5073830;28;20443;-60
2021/09/25 00:10:12;;;;;;;6.03;5.10;;;14.10;99.90;;;;;;5073948;28;20452;-60
2021/09/25 00:12:40;;;;;;;5.33;4.83;;;14.10;99.90;;;;;;5073986;28;20443;-60
2021/09/25 00:15:07;;;;;;;5.50;5.03;;;14.00;99.90;;;;;;5073439;28;20688;-56
2021/09/25 00:17:33;;;;;;;4.80;4.33;;;14.00;99.90;;;;;;5073828;28;20443;-56
2021/09/25 00:20:00;;;;;;;5.60;5.07;;;14.00;99.90;;;;;;5073485;28;20951;-60
2021/09/25 00:22:27;;;;;;;4.90;4.43;;;13.90;99.90;;;;;;5073422;28;20443;-60
2021/09/25 00:24:53;;;;;;;5.50;5.00;;;13.90;99.90;;;;;;5073495;28;20491;-60
2021/09/25 00:27:20;;;;;;;6.07;5.47;;;13.90;99.90;;;;;;5073642;28;20839;-60
2021/09/25 00:29:48;;;;;;;4.83;4.27;;;13.80;99.90;;;;;;5073208;28;20443;-60
2021/09/25 00:32:15;;;;;;;7.30;5.33;;;13.80;99.90;;;;;;5073212;28;20995;-59
2021/09/25 00:34:42;;;;;;;5.30;4.80;;;13.70;99.90;;;;;;5073393;28;20463;-60
2021/09/25 00:37:08;;;;;;;4.97;4.53;;;13.70;99.90;;;;;;5073336;28;20475;-60
2021/09/25 00:39:35;;;;;;;5.47;5.00;;;13.70;99.90;;;;;;5073090;28;20455;-59
2021/09/25 00:42:02;;;;;;;5.80;5.20;;;13.70;99.90;;;;;;5073023;28;20952;-60
2021/09/25 00:44:29;;;;;;;4.30;3.90;;;13.60;99.90;;;;;;5073090;28;20451;-60
2021/09/25 00:46:58;;;;;;;5.30;4.60;;;13.60;99.90;;;;;;5073055;28;20450;-60
2021/09/25 00:49:26;;;;;;;8.00;5.27;;;13.50;99.90;;;;;;5072840;28;20455;-60
2021/09/25 00:51:53;;;;;;;4.87;4.30;;;13.50;99.90;;;;;;5072796;28;20450;-60
2021/09/25 00:54:20;;;;;;;6.50;4.40;;;13.50;99.90;;;;;;5072955;28;20467;-60
2021/09/25 00:56:49;;;;;;;8.60;5.50;;;13.50;99.90;;;;;;5073080;28;20447;-60
2021/09/25 00:59:16;;;;;;;8.27;5.57;;;13.50;99.90;;;;;;5072581;28;20451;-60
2021/09/25 01:01:44;;;;;;;7.60;6.43;;;13.50;99.90;;;;;;5072617;28;20444;-60
2021/09/25 01:04:12;;;;;;;8.43;7.27;;;13.50;99.90;;;;;;5072767;28;20439;-60
2021/09/25 01:06:40;;;;;;;7.53;6.83;;;13.50;99.90;;;;;;5072716;28;20490;-60
2021/09/25 01:09:08;;;;;;;9.50;7.27;;;13.50;99.90;;;;;;5072333;28;20813;-60
2021/09/25 01:11:35;;;;;;;8.63;7.73;;;13.50;99.90;;;;;;5072844;28;20447;-60
2021/09/25 01:14:03;;;;;;;7.23;6.43;;;13.50;99.90;;;;;;5072664;28;20933;-59
2021/09/25 01:16:29;;;;;;;11.60;8.77;;;13.50;99.90;;;;;;5071870;28;20463;-60
2021/09/25 01:18:56;;;;;;;8.70;7.80;;;13.50;99.90;;;;;;5071883;28;20606;-60
2021/09/25 01:21:25;;;;;;;16.43;8.83;;;13.50;99.90;;;;;;5072610;28;20455;-60
2021/09/25 01:23:51;;;;;;;14.07;8.23;;;13.50;99.90;;;;;;5072545;28;20450;-60
2021/09/25 01:26:20;;;;;;;10.67;8.10;;;13.50;99.90;;;;;;5071924;28;20876;-58
2021/09/25 01:28:48;;;;;;;11.70;8.70;;;13.40;99.90;;;;;;5072235;28;20470;-60
2021/09/25 01:31:16;;;;;;;11.17;8.50;;;13.40;99.90;;;;;;5072266;28;20462;-60
2021/09/25 01:33:45;;;;;;;8.13;7.13;;;13.50;99.90;;;;;;5072354;28;20525;-60
2021/09/25 01:36:13;;;;;;;9.03;8.23;;;13.50;99.90;;;;;;5072059;28;20520;-59
2021/09/25 01:38:43;;;;;;;9.03;7.73;;;13.50;99.90;;;;;;5072124;28;20924;-60
2021/09/25 01:41:12;;;;;;;7.40;6.50;;;13.50;99.90;;;;;;5072192;28;20450;-60
2021/09/25 01:43:39;;;;;;;10.07;7.23;;;13.50;99.90;;;;;;5072154;28;20443;-60
2021/09/25 01:46:06;;;;;;;8.30;6.33;;;13.40;99.90;;;;;;5071542;28;20486;-59
2021/09/25 01:48:32;;;;;;;11.20;8.13;;;13.40;99.90;;;;;;5071662;28;20455;-60
2021/09/25 01:50:59;;;;;;;12.17;7.33;;;13.40;99.90;;;;;;5071958;28;20455;-60
2021/09/25 01:53:27;;;;;;;8.33;7.53;;;13.40;99.90;;;;;;5071934;28;20810;-60
2021/09/25 01:55:55;;;;;;;10.70;8.23;;;13.30;99.90;;;;;;5071570;28;20470;-60
2021/09/25 01:58:21;;;;;;;10.30;8.67;;;13.30;99.90;;;;;;5071596;28;20470;-60
2021/09/25 02:00:48;;;;;;;12.20;8.90;;;13.30;99.90;;;;;;5071907;28;20458;-60
2021/09/25 02:03:15;;;;;;;9.93;8.50;;;13.30;99.90;;;;;;5072029;28;20455;-60
2021/09/25 02:05:42;;;;;;;8.40;7.60;;;13.30;99.90;;;;;;5071585;28;20840;-60
2021/09/25 02:08:08;;;;;;;12.03;8.57;;;13.30;99.90;;;;;;5071722;28;20454;-60
2021/09/25 02:10:35;;;;;;;8.60;7.80;;;13.30;99.90;;;;;;5071918;28;20497;-60
2021/09/25 02:13:03;;;;;;;12.43;8.80;;;13.30;99.90;;;;;;5071617;28;20796;-59
2021/09/25 02:15:32;;;;;;;9.67;8.63;;;13.30;99.90;;;;;;5071057;28;20471;-58
2021/09/25 02:17:59;;;;;;;13.53;8.33;;;13.20;99.90;;;;;;5071515;28;20453;-60
2021/09/25 02:20:25;;;;;;;10.40;8.90;;;13.20;99.90;;;;;;5071698;28;20442;-58
2021/09/25 02:22:52;;;;;;;9.37;8.30;;;13.20;99.90;;;;;;5071793;28;20451;-59
2021/09/25 02:25:19;;;;;;;12.70;10.87;;;13.20;99.90;;;;;;5071690;28;20490;-53
2021/09/25 02:27:49;;;;;;;12.13;10.33;;;13.20;99.90;;;;;;5070976;28;20454;-53
2021/09/25 02:30:18;;;;;;;12.23;10.93;;;13.30;99.90;;;;;;5071459;28;20881;-56
2021/09/25 02:32:45;;;;;;;11.90;7.87;;;13.30;99.90;;;;;;5071490;28;20446;-55
2021/09/25 02:35:14;;;;;;;9.93;8.90;;;13.20;99.90;;;;;;5071233;28;20878;-53
2021/09/25 02:37:41;;;;;;;10.30;9.27;;;13.20;99.90;;;;;;5071485;28;20466;-59
2021/09/25 02:40:09;;;;;;;12.60;9.20;;;13.30;99.90;;;;;;5071442;28;20863;-54
2021/09/25 02:42:36;;;;;;;10.50;8.73;;;13.30;99.90;;;;;;5071581;28;20439;-52
2021/09/25 02:45:04;;;;;;;11.93;9.10;;;13.30;99.90;;;;;;5070772;28;20980;-57
2021/09/25 02:47:32;;;;;;;10.80;8.80;;;13.30;99.90;;;;;;5071535;28;20450;-59
2021/09/25 02:49:59;;;;;;;15.20;10.00;;;13.20;99.90;;;;;;5071110;28;20439;-56
2021/09/25 02:52:26;;;;;;;10.70;9.63;;;13.20;99.90;;;;;;5071319;28;20534;-55
2021/09/25 02:54:53;;;;;;;10.80;7.90;;;13.20;99.90;;;;;;5070717;28;20992;-56
2021/09/25 02:57:20;;;;;;;12.10;9.40;;;13.20;99.90;;;;;;5071073;28;20936;-55
2021/09/25 02:59:47;;;;;;;12.37;8.13;;;13.20;99.90;;;;;;5071050;28;20451;-52
2021/09/25 03:02:13;;;;;;;11.57;8.50;;;13.10;99.90;;;;;;5071166;28;20442;-55
2021/09/25 03:04:41;;;;;;;14.87;9.63;;;13.20;99.90;;;;;;5070853;28;20926;-52
2021/09/25 03:07:08;;;;;;;10.60;8.50;;;13.20;99.90;;;;;;5071152;28;20486;-53
2021/09/25 03:09:35;;;;;;;9.20;8.30;;;13.30;99.90;;;;;;5070810;28;20462;-59
2021/09/25 03:12:02;;;;;;;11.43;10.00;;;13.30;99.90;;;;;;5071020;28;20440;-59
2021/09/25 03:14:29;;;;;;;16.90;9.50;;;13.40;99.90;;;;;;5070734;28;20450;-54
2021/09/25 03:16:56;;;;;;;9.00;8.10;;;13.50;99.90;;;;;;5071033;28;20436;-60
2021/09/25 03:19:22;;;;;;;14.30;9.30;;;13.60;99.90;;;;;;5070778;28;20431;-53
2021/09/25 03:21:50;;;;;;;15.67;11.27;;;13.70;99.90;;;;;;5071204;28;20851;-54
2021/09/25 03:24:17;;;;;;;14.50;11.83;;;13.70;99.90;;;;;;5070600;28;20451;-53
2021/09/25 03:26:44;;;;;;;14.10;10.47;;;13.80;99.90;;;;;;5070805;28;20478;-56
2021/09/25 03:29:10;;;;;;;14.30;11.77;;;13.90;99.90;;;;;;5070711;28;20440;-53
2021/09/25 03:31:37;;;;;;;17.10;11.27;;;14.00;99.90;;;;;;5070836;28;20485;-53
2021/09/25 03:34:06;;;;;;;12.93;10.40;;;14.10;99.90;;;;;;5070809;28;20455;-56
2021/09/25 03:36:33;;;;;;;12.30;11.07;;;14.10;99.90;;;;;;5070664;28;20467;-57
2021/09/25 03:39:01;;;;;;;14.23;11.70;;;14.20;99.90;;;;;;5070488;28;20505;-54
2021/09/25 03:41:27;;;;;;;11.77;10.57;;;14.20;99.90;;;;;;5073306;28;20443;-59
2021/09/25 03:43:54;;;;;;;11.90;10.00;;;14.30;99.90;;;;;;5074251;28;20513;-59
2021/09/25 03:46:21;;;;;;;11.97;8.77;;;14.30;99.90;;;;;;5074172;28;20549;-54
2021/09/25 03:48:48;;;;;;;12.80;9.80;;;14.40;99.90;;;;;;5074176;28;20439;-55
2021/09/25 03:51:15;;;;;;;13.83;9.50;;;14.40;99.90;;;;;;5073885;28;20805;-53
2021/09/25 03:53:41;;;;;;;11.30;10.10;;;14.40;99.90;;;;;;5074135;28;20453;-53
2021/09/25 03:56:09;;;;;;;11.80;10.53;;;14.50;99.90;;;;;;5074171;28;20489;-52
2021/09/25 03:58:36;;;;;;;12.03;10.23;;;14.50;99.90;;;;;;5073923;28;20444;-54
2021/09/25 04:01:03;;;;;;;14.43;10.63;;;14.50;99.90;;;;;;5073738;28;20443;-61
2021/09/25 04:03:31;;;;;;;13.37;10.10;;;14.60;99.90;;;;;;5073197;28;20463;-53
2021/09/25 04:05:58;;;;;;;12.80;9.50;;;14.60;99.90;;;;;;5073797;28;20491;-55
2021/09/25 04:08:25;;;;;;;12.00;8.00;;;14.60;99.90;;;;;;5073694;28;20547;-60
2021/09/25 04:10:52;;;;;;;12.23;9.20;;;14.70;99.90;;;;;;5073891;28;20443;-53
2021/09/25 04:13:20;;;;;;;11.53;9.00;;;14.70;99.90;;;;;;5073462;28;20451;-53
2021/09/25 04:15:47;;;;;;;10.60;9.57;;;14.70;99.90;;;;;;5073797;28;20913;-54
2021/09/25 04:18:14;;;;;;;17.43;11.33;;;14.70;99.90;;;;;;5073674;28;20439;-55
2021/09/25 04:20:43;;;;;;;11.30;10.10;;;14.80;99.90;;;;;;5073624;28;20496;-59
2021/09/25 04:23:09;;;;;;;13.37;11.50;;;14.80;99.90;;;;;;5073581;28;20857;-60
2021/09/25 04:25:36;;;;;;;12.30;8.43;;;14.80;99.90;;;;;;5073447;28;20471;-55
2021/09/25 04:28:06;;;;;;;9.03;8.13;;;14.80;99.90;;;;;;5073377;28;20446;-55
2021/09/25 04:30:35;;;;;;;13.23;8.80;;;14.90;99.90;;;;;;5073602;28;20812;-54
2021/09/25 04:33:03;;;;;;;10.50;7.77;;;14.90;99.90;;;;;;5073165;28;20444;-53
2021/09/25 04:35:30;;;;;;;9.03;6.50;;;14.90;99.90;;;;;;5073544;28;20471;-56
2021/09/25 04:37:57;;;;;;;9.47;8.37;;;14.90;99.90;;;;;;5073198;28;20444;-55
2021/09/25 04:40:24;;;;;;;9.87;7.67;;;14.90;99.90;;;;;;5073312;28;20446;-58
2021/09/25 04:42:51;;;;;;;11.50;8.10;;;14.90;99.90;;;;;;5073233;28;20802;-59
2021/09/25 04:45:18;;;;;;;10.53;9.43;;;15.00;99.90;;;;;;5073215;28;20467;-56
2021/09/25 04:47:47;;;;;;;8.00;7.30;;;15.00;99.90;;;;;;5073089;28;20479;-57
2021/09/25 04:50:15;;;;;;;18.73;8.93;;;15.00;99.90;;;;;;5073307;28;20827;-57
2021/09/25 04:52:42;;;;;;;8.40;6.63;;;15.00;99.90;;;;;;5072714;28;20451;-53
2021/09/25 04:55:10;;;;;;;7.80;7.00;;;15.00;99.90;;;;;;5072994;28;20831;-57
2021/09/25 04:57:37;;;;;;;13.10;7.50;;;15.00;99.90;;;;;;5073058;28;20435;-57
2021/09/25 05:00:05;;;;;;;12.67;8.80;;;15.00;99.90;;;;;;5072717;28;20447;-53
2021/09/25 05:02:31;;;;;;;9.47;8.03;;;15.00;99.90;;;;;;5072812;28;20447;-55
2021/09/25 05:05:00;;;;;;;9.37;8.37;;;15.00;99.90;;;;;;5072769;28;20474;-54
2021/09/25 05:07:26;;;;;;;9.00;7.80;;;15.00;99.90;;;;;;5072786;28;20505;-56
2021/09/25 05:09:53;;;;;;;8.93;7.70;;;15.00;99.90;;;;;;5072423;28;20443;-61
2021/09/25 05:12:21;;;;;;;10.13;6.60;;;15.00;99.90;;;;;;5072509;28;20458;-56
2021/09/25 05:14:48;;;;;;;7.80;6.77;;;15.00;99.90;;;;;;5072636;28;20486;-57
2021/09/25 05:17:14;;;;;;;12.20;7.00;;;15.00;99.90;;;;;;5072670;28;20444;-61
2021/09/25 05:19:42;;;;;;;7.40;6.80;;;15.00;99.90;;;;;;5072072;28;20451;-54
2021/09/25 05:22:10;;;;;;;7.73;7.00;;;15.00;99.90;;;;;;5072484;28;20444;-54
2021/09/25 05:24:36;;;;;;;7.70;6.23;;;15.00;99.90;;;;;;5072303;28;20503;-59
2021/09/25 05:27:04;;;;;;;8.60;7.67;;;15.00;99.90;;;;;;5072585;28;20475;-59
2021/09/25 05:29:31;;;;;;;7.23;6.53;;;15.00;99.90;;;;;;5071912;28;20500;-59
2021/09/25 05:32:01;;;;;;;12.50;7.20;;;15.00;99.90;;;;;;5072108;28;20944;-55
2021/09/25 05:34:28;;;;;;;9.60;7.27;;;15.10;99.90;;;;;;5072184;28;20443;-57
2021/09/25 05:36:56;;;;;;;8.00;7.30;;;15.10;99.90;;;;;;5072187;28;20446;-56
2021/09/25 05:39:24;;;;;;;6.30;5.70;;;15.10;99.90;;;;;;5071582;28;20501;-54
2021/09/25 05:41:51;;;;;;;6.60;5.80;;;15.10;99.90;;;;;;5072074;28;20453;-55
2021/09/25 05:44:18;;;;;;;7.80;7.03;;;15.20;99.90;;;;;;5072158;28;20473;-56
2021/09/25 05:46:44;;;;;;;7.13;6.63;;;15.20;99.90;;;;;;5071957;28;20486;-58
2021/09/25 05:49:11;;;;;;;9.00;7.67;;;15.20;99.90;;;;;;5071661;28;20446;-53
2021/09/25 05:51:38;;;;;;;7.57;6.03;;;15.20;99.90;;;;;;5071971;28;20455;-54
2021/09/25 05:54:04;;;;;;;7.33;6.67;;;15.20;99.90;;;;;;5071879;28;20450;-54
2021/09/25 05:56:34;;;;;;;6.43;5.93;;;15.30;99.90;;;;;;5071908;28;20455;-58
2021/09/25 05:59:00;;;;;;;8.13;6.40;;;15.30;99.90;;;;;;5071381;28;20508;-54
2021/09/25 06:01:27;;;;;;;6.90;6.30;;;15.30;99.90;;;;;;5071853;28;20439;-55
2021/09/25 06:03:54;;;;;;;7.50;5.90;;;15.40;99.90;;;;;;5071252;28;20443;-52
2021/09/25 06:06:20;;;;;;;7.20;6.50;;;15.40;99.90;;;;;;5071733;28;20525;-56
2021/09/25 06:08:47;;;;;;;7.13;6.40;;;15.50;99.90;;;;;;5071308;28;20450;-53
2021/09/25 06:11:14;;;;;;;7.20;6.23;;;15.50;99.90;;;;;;5071827;28;20813;-52
2021/09/25 06:13:42;;;;;;;6.87;6.37;;;15.50;99.90;;;;;;5071724;28;20458;-54
2021/09/25 06:16:08;;;;;;;8.57;6.53;;;15.60;99.90;;;;;;5071430;28;20968;-60
2021/09/25 06:18:35;;;;;;;7.27;6.70;;;15.60;99.90;;;;;;5071156;28;20444;-58
2021/09/25 06:21:02;;;;;;;6.93;6.33;;;15.60;99.90;;;;;;5071539;28;20443;-54
2021/09/25 06:23:28;;;;;;;6.80;6.00;;;15.70;99.90;;;;;;5071533;28;20442;-60
2021/09/25 06:25:55;;;;;;;8.43;6.80;;;15.70;99.90;;;;;;5071521;28;20498;-56
2021/09/25 06:28:22;;;;;;;7.20;6.50;;;15.80;99.90;;;;;;5071091;28;20471;-53
2021/09/25 06:30:50;;;;;;;6.93;5.80;;;15.80;99.90;;;;;;5071313;28;20925;-62
2021/09/25 06:33:16;;;;;;;9.50;7.10;;;15.90;99.90;;;;;;5071538;28;20446;-60
2021/09/25 06:35:43;;;;;;;6.70;6.20;;;16.00;99.90;;;;;;5071458;28;20486;-56
2021/09/25 06:38:10;;;;;;;7.73;6.60;;;16.00;99.90;;;;;;5070759;28;20439;-54
2021/09/25 06:40:37;;;;;;;8.40;7.50;;;16.10;99.90;;;;;;5070677;28;20447;-59
2021/09/25 06:43:04;;;;;;;6.63;6.07;;;16.20;99.90;;;;;;5071336;28;20451;-57
2021/09/25 06:45:32;;;;;;;6.73;6.23;;;16.30;99.90;;;;;;5071317;28;20463;-52
2021/09/25 06:48:01;;;;;;;8.10;7.40;;;16.30;99.90;;;;;;5070842;28;20483;-59
2021/09/25 06:50:28;;;;;;;6.83;6.13;;;16.40;99.90;;;;;;5071160;28;20443;-55
2021/09/25 06:52:54;;;;;;;8.13;7.53;;;16.50;99.90;;;;;;5071315;28;20443;-52
2021/09/25 06:55:25;;;;;;;8.03;7.43;;;16.50;99.90;;;;;;5071064;28;20467;-58
2021/09/25 06:57:51;;;;;;;7.33;6.73;;;16.60;99.90;;;;;;5071105;28;20435;-56
2021/09/25 07:00:18;;;;;;;7.50;6.90;;;16.70;99.90;;;;;;5070490;28;20443;-52
2021/09/25 07:02:45;;;;;;;8.70;8.00;;;16.70;99.90;;;;;;5071274;28;20443;-54
2021/09/25 07:05:13;;;;;;;9.80;8.83;;;16.90;99.90;;;;;;5071056;28;20470;-58
2021/09/25 07:07:40;;;;;;;8.70;7.80;;;17.00;99.90;;;;;;5071143;28;20525;-54
2021/09/25 07:10:08;;;;;;;9.10;8.50;;;17.10;99.90;;;;;;5070616;28;20459;-52
2021/09/25 07:12:34;;;;;;;9.53;8.80;;;17.10;99.90;;;;;;5071008;28;20450;-53
2021/09/25 07:15:01;;;;;;;11.43;10.43;;;17.20;99.90;;;;;;5071754;28;20466;-54
2021/09/25 07:17:28;;;;;;;10.20;9.50;;;17.30;99.90;;;;;;5075003;28;20447;-57
2021/09/25 07:19:54;;;;;;;9.53;8.90;;;17.30;99.90;;;;;;5074045;28;20443;-58
2021/09/25 07:22:22;;;;;;;9.80;9.10;;;17.40;99.90;;;;;;5074628;28;20444;-56
2021/09/25 07:24:53;;;;;;;10.90;10.10;;;17.40;99.90;;;;;;5074389;28;20475;-53
2021/09/25 07:27:20;;;;;;;11.30;10.50;;;17.50;99.90;;;;;;5074581;28;20479;-56
2021/09/25 07:29:48;;;;;;;11.07;10.20;;;17.60;99.90;;;;;;5074130;28;20870;-54
2021/09/25 07:32:15;;;;;;;11.37;10.10;;;17.70;99.90;;;;;;5074731;28;20451;-56
2021/09/25 07:34:42;;;;;;;11.00;10.10;;;17.70;99.90;;;;;;5074392;28;20924;-55
2021/09/25 07:37:08;;;;;;;11.67;10.67;;;17.80;99.90;;;;;;5074583;28;20857;-59
2021/09/25 07:39:37;;;;;;;11.93;10.77;;;17.80;99.90;;;;;;5074014;28;20443;-56
2021/09/25 07:42:05;;;;;;;12.23;11.23;;;18.00;99.90;;;;;;5074143;28;20553;-52
2021/09/25 07:44:32;;;;;;;11.93;11.13;;;18.00;99.90;;;;;;5074352;28;20443;-52
2021/09/25 07:46:58;;;;;;;11.37;10.67;;;18.00;99.90;;;;;;5074314;28;20506;-54
2021/09/25 07:49:25;;;;;;;12.57;11.67;;;18.10;99.90;;;;;;5073561;28;20450;-57
2021/09/25 07:51:52;;;;;;;13.43;12.17;;;18.20;99.90;;;;;;5074432;28;20439;-54
2021/09/25 07:54:18;;;;;;;12.87;12.07;;;18.30;99.90;;;;;;5074140;28;20451;-56
2021/09/25 07:56:46;;;;;;;13.43;12.53;;;18.30;99.90;;;;;;5073633;28;20825;-58
2021/09/25 07:59:13;;;;;;;13.77;12.83;;;18.30;99.90;;;;;;5073776;28;20447;-60
2021/09/25 08:01:40;;;;;;;14.30;13.50;;;18.30;99.90;;;;;;5074082;28;20446;-57
2021/09/25 08:04:07;;;;;;;14.60;13.60;;;18.30;99.90;;;;;;5073983;28;20472;-54
2021/09/25 08:06:34;;;;;;;13.53;12.73;;;18.30;99.90;;;;;;5073494;28;20472;-53
2021/09/25 08:09:01;;;;;;;15.30;14.07;;;18.40;99.90;;;;;;5053513;28;20526;-53
2021/09/25 08:11:27;;;;;;;14.93;13.83;;;18.40;99.90;;;;;;5053836;28;20930;-56
2021/09/25 08:13:55;;;;;;;13.90;13.00;;;18.50;99.90;;;;;;5054068;28;20455;-53
2021/09/25 08:16:22;;;;;;;15.40;14.30;;;18.60;99.90;;;;;;5053658;28;20468;-56
2021/09/25 08:18:50;;;;;;;14.63;13.37;;;18.60;99.90;;;;;;5071978;28;20454;-58
2021/09/25 08:21:16;;;;;;;14.90;13.90;;;18.70;99.90;;;;;;5073517;28;20822;-55
2021/09/25 08:23:43;;;;;;;14.40;13.40;;;18.80;99.90;;;;;;5073634;28;20450;-53
2021/09/25 08:26:10;;;;;;;15.97;14.97;;;18.90;99.90;;;;;;5073075;28;20475;-58
2021/09/25 08:28:37;;;;;;;15.17;14.23;;;18.90;99.90;;;;;;5073128;28;20479;-59
2021/09/25 08:31:05;;;;;;;15.77;13.93;;;19.00;99.90;;;;;;5073639;28;20538;-59
2021/09/25 08:33:32;;;;;;;14.37;13.37;;;19.20;99.90;;;;;;5073368;28;20451;-59
2021/09/25 08:35:59;;;;;;;15.70;14.80;;;19.30;99.90;;;;;;5072549;28;20466;-58
2021/09/25 08:38:26;;;;;;;15.90;14.80;;;19.40;99.90;;;;;;5072990;28;20443;-56
2021/09/25 08:40:54;;;;;;;15.20;14.20;;;19.50;99.90;;;;;;5073417;28;20455;-59
2021/09/25 08:43:24;;;;;;;14.27;13.47;;;19.60;99.90;;;;;;5073384;28;20546;-60
2021/09/25 08:45:55;;;;;;;14.37;13.40;;;19.70;99.90;;;;;;5073178;28;20829;-60
2021/09/25 08:48:23;;;;;;;14.50;13.70;;;19.90;99.90;;;;;;5073160;28;20925;-59
2021/09/25 08:50:49;;;;;;;15.60;14.67;;;20.10;99.90;;;;;;5073144;28;20443;-55
2021/09/25 08:53:16;;;;;;;15.63;14.70;;;20.30;99.90;;;;;;5073139;28;20447;-59
2021/09/25 08:55:43;;;;;;;18.33;17.33;;;20.40;99.90;;;;;;5072668;28;20842;-57
2021/09/25 08:58:10;;;;;;;16.70;15.40;;;20.60;99.90;;;;;;5072830;28;20447;-56
2021/09/25 09:00:40;;;;;;;14.97;14.17;;;20.80;99.90;;;;;;5072996;28;20451;-58
2021/09/25 09:03:30;;;;;;;15.30;14.40;;;20.90;99.90;;;;;;5072752;28;20448;-60
2021/09/25 09:06:08;;;;;;;17.70;16.60;;;21.20;99.90;;;;;;5072591;28;20467;-60
2021/09/25 09:08:35;;;;;;;15.97;14.87;;;21.40;99.90;;;;;;5072607;28;21007;-58
2021/09/25 09:11:04;;;;;;;17.47;16.10;;;21.50;99.90;;;;;;5072628;28;20451;-58
2021/09/25 09:13:32;;;;;;;16.73;15.83;;;21.60;99.90;;;;;;5072632;28;20557;-60
2021/09/25 09:16:02;;;;;;;18.00;16.87;;;21.60;99.90;;;;;;5072191;28;20517;-60
2021/09/25 09:18:31;;;;;;;17.73;16.73;;;21.70;99.90;;;;;;5072372;28;20443;-55
2021/09/25 09:21:06;;;;;;;17.00;16.10;;;21.90;99.90;;;;;;5072337;28;20448;-58
2021/09/25 09:23:36;;;;;;;17.53;16.50;;;21.80;99.90;;;;;;5072197;28;20449;-58
2021/09/25 09:26:04;;;;;;;17.90;16.87;;;22.00;99.90;;;;;;5072113;28;20479;-59
2021/09/25 09:28:33;;;;;;;18.60;17.47;;;22.10;99.90;;;;;;5072068;28;20490;-60
2021/09/25 09:31:02;;;;;;;17.83;16.70;;;22.20;99.90;;;;;;5072340;28;20448;-60
2021/09/25 09:33:37;;;;;;;17.43;16.53;;;22.30;99.90;;;;;;5072408;28;20501;-58
2021/09/25 09:36:19;;;;;;;18.03;17.03;;;22.40;99.90;;;;;;5072067;28;20459;-60
2021/09/25 09:38:50;;;;;;;16.90;16.00;;;22.50;99.90;;;;;;5071126;28;20948;-58
2021/09/25 09:41:19;;;;;;;20.23;18.90;;;22.50;99.90;;;;;;5071526;28;20531;-59
2021/09/25 09:43:46;;;;;;;18.47;17.37;;;22.70;99.90;;;;;;5072132;28;20439;-59
2021/09/25 09:46:13;;;;;;;17.83;16.77;;;22.80;99.90;;;;;;5072071;28;21045;-58
2021/09/25 09:48:44;;;;;;;19.07;17.87;;;22.90;99.90;;;;;;5071580;28;20479;-60
2021/09/25 09:51:11;;;;;;;16.70;15.80;;;22.80;99.90;;;;;;5071815;28;20435;-57
2021/09/25 09:53:46;;;;;;;18.37;16.83;;;22.90;99.90;;;;;;5071759;28;20442;-61
2021/09/25 09:56:24;;;;;;;17.03;16.23;;;23.00;99.90;;;;;;5071824;28;20458;-61
2021/09/25 09:59:04;;;;;;;16.60;15.80;;;23.20;99.90;;;;;;5071662;28;20470;-58
2021/09/25 10:01:33;;;;;;;18.20;17.00;;;23.30;99.90;;;;;;5070680;28;20538;-60
2021/09/25 10:04:09;;;;;;;18.63;17.63;;;23.40;99.90;;;;;;5071808;28;20454;-59
2021/09/25 10:06:37;;;;;;;18.00;17.00;;;23.40;99.90;;;;;;5063364;28;20841;-59
2021/09/25 10:09:13;;;;;;;17.50;16.70;;;23.60;99.90;;;;;;5051298;28;20484;-59
2021/09/25 10:11:43;;;;;;;17.80;16.70;;;23.70;99.90;;;;;;5051811;28;20450;-55
2021/09/25 10:14:16;;;;;;;19.20;18.10;;;23.80;99.90;;;;;;5051985;28;21032;-55
2021/09/25 10:16:46;;;;;;;18.33;17.50;;;23.80;99.90;;;;;;5051534;28;20444;-58
2021/09/25 10:19:17;;;;;;;18.47;17.57;;;23.70;99.90;;;;;;5063767;28;20435;-58
2021/09/25 10:21:50;;;;;;;18.30;17.40;;;24.00;99.90;;;;;;5071313;28;20443;-60
2021/09/25 10:24:26;;;;;;;18.63;17.63;;;24.20;99.90;;;;;;5071275;28;20932;-58
2021/09/25 10:26:56;;;;;;;19.07;17.97;;;24.20;99.90;;;;;;5071504;28;20447;-58
2021/09/25 10:29:28;;;;;;;19.67;18.53;;;24.40;99.90;;;;;;5071180;28;20479;-58
2021/09/25 10:32:22;;;;;;;18.90;18.00;;;24.60;99.90;;;;;;5071544;28;20466;-59
2021/09/25 10:35:15;;;;;;;19.73;18.43;;;24.60;99.90;;;;;;5071337;28;20516;-58
2021/09/25 10:37:49;;;;;;;21.90;20.53;;;24.60;99.90;;;;;;5047557;28;20501;-59
2021/09/25 10:40:18;;;;;;;19.07;18.10;;;24.60;99.90;;;;;;5071095;28;20442;-57
2021/09/25 10:42:51;;;;;;;18.50;17.70;;;24.60;99.90;;;;;;5071512;28;20859;-60
2021/09/25 10:45:26;;;;;;;20.67;19.57;;;24.70;99.90;;;;;;5071178;28;20463;-59
2021/09/25 10:48:15;;;;;;;20.40;19.23;;;24.80;99.90;;;;;;5071066;28;20535;-58
2021/09/25 10:50:50;;;;;;;19.37;18.37;;;24.80;99.90;;;;;;5064836;28;20462;-60
2021/09/25 10:53:22;;;;;;;18.77;17.77;;;24.90;99.90;;;;;;5075400;28;20442;-59
2021/09/25 10:55:51;;;;;;;18.30;17.50;;;25.00;99.40;;;;;;5063324;28;20871;-58
2021/09/25 10:58:36;;;;;;;17.70;16.50;;;25.10;99.30;;;;;;5055693;28;20450;-58
2021/09/25 11:01:11;;;;;;;16.77;15.88;;;25.10;99.10;;;;;;5054129;28;20463;-59
2021/09/25 11:04:10;;;;;;;17.75;16.90;;;25.10;99.10;;;;;;5054842;28;20759;-59
2021/09/25 11:07:01;;;;;;;18.30;17.23;;;25.30;98.10;;;;;;5055386;28;20737;-62
2021/09/25 11:09:34;;;;;;;17.37;16.57;;;25.20;97.30;;;;;;5062032;28;20532;-59
2021/09/25 11:12:08;;;;;;;16.90;16.20;;;25.00;97.50;;;;;;5074844;28;20446;-60
2021/09/25 11:14:41;;;;;;;16.50;15.90;;;25.10;97.30;;;;;;5075162;28;20497;-59
2021/09/25 11:17:24;;;;;;;17.10;16.40;;;25.20;97.10;;;;;;5075028;28;20808;-63
2021/09/25 11:19:55;;;;;;;17.83;16.93;;;25.10;97.10;;;;;;5074777;28;20500;-60
2021/09/25 11:22:28;;;;;;;17.40;16.70;;;25.00;97.90;;;;;;5074742;28;20448;-58
2021/09/25 11:24:58;;;;;;;18.13;17.23;;;25.00;97.70;;;;;;5074671;28;20467;-59
2021/09/25 11:27:28;;;;;;;16.83;16.03;;;25.00;97.60;;;;;;5074217;28;20447;-60
2021/09/25 11:30:10;;;;;;;16.98;16.08;;;25.30;97.70;;;;;;5072393;28;20596;-61
2021/09/25 11:32:39;;;;;;;19.60;18.60;;;25.70;96.70;;;;;;5074146;28;20208;-59
2021/09/25 11:35:09;;;;;;;20.57;19.47;;;25.90;95.80;;;;;;5074258;28;20459;-54
2021/09/25 11:37:47;;;;;;;18.47;17.67;;;26.10;95.10;;;;;;5074414;28;20445;-57
2021/09/25 11:40:15;;;;;;;19.90;18.80;;;26.20;95.60;;;;;;5074353;28;20526;-57
2021/09/25 11:42:42;;;;;;;20.13;19.23;;;26.80;94.10;;;;;;5073577;28;20499;-56
2021/09/25 11:45:12;;;;;;;19.60;18.80;;;27.90;92.30;;;;;;5073347;28;20467;-58
2021/09/25 11:47:41;;;;;;;19.30;18.40;;;28.80;90.40;;;;;;5072972;28;20501;-58
2021/09/25 11:50:15;;;;;;;19.07;18.13;;;29.40;84.50;;;;;;5073887;28;20483;-55
2021/09/25 11:52:47;;;;;;;20.13;19.03;;;30.70;77.40;;;;;;5074129;28;20490;-57
2021/09/25 11:55:15;;;;;;;19.97;19.27;;;32.30;67.80;;;;;;5074156;28;20470;-59
2021/09/25 11:57:48;;;;;;;22.00;21.00;;;35.00;56.00;;;;;;5074083;28;20446;-60
2021/09/25 12:00:25;;;;;;;21.60;20.70;;;37.30;49.40;;;;;;5073654;28;20508;-57
2021/09/25 12:02:55;;;;;;;22.23;21.42;;;39.10;43.20;;;;;;5073423;28;20283;-56
2021/09/25 12:05:32;;;;;;;23.83;22.77;;;40.10;39.40;;;;;;5073911;28;20216;-59
2021/09/25 12:08:03;;;;;;;22.17;21.25;;;41.80;36.50;;;;;;5073625;28;20240;-59
2021/09/25 12:10:32;;;;;;;22.13;21.27;;;42.40;34.10;;;;;;5074070;28;20204;-58
2021/09/25 12:13:02;;;;;;;22.30;21.20;;;43.70;32.40;;;;;;5073910;28;20200;-61
2021/09/25 12:15:32;;;;;;;23.38;22.23;;;43.10;31.10;;;;;;5076133;28;20353;-57
2021/09/25 12:18:21;;;;;;;21.83;20.95;;;42.90;31.00;;;;;;5075912;28;20200;-56
2021/09/25 12:20:51;;;;;;;22.60;21.60;;;41.30;31.60;;;;;;5073714;28;20211;-59
2021/09/25 12:23:24;;;;;;;22.45;21.35;;;37.40;34.80;;;;;;5073972;28;20576;-58
2021/09/25 12:25:52;;;;;;;22.15;20.95;;;36.00;37.90;;;;;;5073676;28;20713;-56
2021/09/25 12:28:46;;;;;;;21.23;20.40;;;36.30;38.60;;;;;;5073038;28;20262;-54
2021/09/25 12:31:22;;;;;;;22.50;21.53;;;35.80;38.80;;;;;;5073714;28;20658;-58
2021/09/25 12:33:53;;;;;;;22.20;21.10;;;34.60;39.80;;;;;;5073593;28;20204;-56
2021/09/25 12:36:19;;;;;;;21.30;20.40;;;36.50;39.30;;;;;;5073238;28;20248;-54
2021/09/25 12:38:48;;;;;;;22.30;21.40;;;38.50;37.70;;;;;;5073258;28;20632;-54
2021/09/25 12:41:18;;;;;;;22.83;21.83;;;41.30;34.30;;;;;;5073290;28;20688;-55
2021/09/25 12:43:46;;;;;;;22.05;20.90;;;42.80;32.30;;;;;;5073063;28;20204;-57